Observations for STORNOWAY, United Kingdom (EGPO)

EGPO 201950Z 21011KT 9999 FEW012 SCT024 BKN030 08/06 Q1005  
EGPO 201920Z 22013KT 9999 FEW012 BKN026 08/05 Q1005 
EGPO 201850Z 22010KT 9999 FEW012 BKN030 08/05 Q1005 
EGPO 201820Z 22009KT 9999 FEW012 BKN030 09/06 Q1004 
EGPO 201750Z 22010KT 9999 FEW012 BKN024 09/06 Q1004 
EGPO 201720Z 21009KT 9999 FEW012 BKN024 09/07 Q1003 
EGPO 201650Z 22012KT 9999 FEW005 09/07 Q1003
EGPO 201620Z 23011KT 9999 FEW008 SCT012 BKN019 10/08 Q1003  
EGPO 201550Z 25012KT 9999 VCSH FEW007 SCT010 BKN020 10/08 Q1002 
EGPO 201520Z 25013KT 9999 -DZ FEW004 BKN008 BKN017 10/09 Q1002  
EGPO 201450Z 26014KT 9999 VCSH FEW004 BKN006 BKN016 10/09 Q1001 
EGPO 201420Z 22013KT 9999 VCSH BKN006 10/10 Q1000   
EGPO 201350Z 21020KT 9999 BKN006 10/09 Q1000
EGPO 201320Z 21021KT 9999 VCSH BKN007 BKN011 10/09 Q0999
EGPO 201250Z 21022KT 6000 -DZ BKN006 BKN011 10/09 Q1000 
EGPO 201220Z 20022KT 4000 -DZ BKN006 BKN011 10/09 Q0999 
EGPO 201150Z 20022KT 4000 -RADZ BR BKN005 BKN011 10/09 Q0999
EGPO 201120Z 20024KT 3000 -RADZ BR FEW004 BKN005 BKN011 10/09 Q0998 
EGPO 201050Z 19024KT 3000 -RADZ BR FEW004 BKN005 BKN011 10/09 Q0998 
EGPO 201020Z 19026KT 3000 -RADZ BR BKN005 BKN011 10/09 Q0998
EGPO 200950Z 19023KT 3500 -RADZ BR FEW005 BKN006 BKN011 10/09 Q0998 
EGPO 200920Z 19023KT 3500 -RADZ BR FEW005 BKN006 BKN011 10/09 Q0998 
EGPO 200850Z 19023KT 3000 -RADZ BR FEW004 BKN005 BKN011 10/09 Q0997 
EGPO 200820Z 19025KT 4000 -RADZ SCT005 BKN006 BKN011 10/09 Q0997
EGPO 200750Z 20023KT 6000 -RADZ BKN006 BKN011 10/09 Q0997   
EGPO 200720Z 21025G35KT 7000 -RADZ FEW005 BKN006 BKN011 10/09 Q0997 
EGPO 200650Z 21025KT 8000 -RADZ FEW005 BKN006 10/09 Q0997   
EGPO 200620Z 20025KT 9999 BKN007 BKN015 10/09 Q0997 
EGPO 200550Z 20025KT 9999 -RADZ BKN007 BKN015 10/09 Q0997   
EGPO 200520Z AUTO 20025KT 9999 -RA BKN008/// BKN016/// OVC027/// 10/09 Q0997
EGPO 200450Z AUTO 20025KT 9999 -RA FEW008/// BKN012/// BKN021/// 10/09 Q0997
EGPO 200420Z AUTO 20025KT 9999 -RA SCT008/// BKN014/// BKN022/// 10/09 Q0997
EGPO 200350Z AUTO 20025KT 9999 -RA BKN007/// OVC012/// 10/09 Q0997  
EGPO 200320Z AUTO 20020KT 9999 -RA OVC007/// 10/09 Q0997
EGPO 200250Z AUTO 19017KT 9999 -RA OVC006/// 09/09 Q0997
EGPO 200220Z AUTO 19018KT 6000 -RA BKN004/// OVC010/// 09/09 Q0998 RERA 
EGPO 200150Z AUTO 18016KT 4700 RA OVC004/// 09/08 Q0998 
EGPO 200120Z AUTO 17018KT 4500 RA BKN004/// OVC013/// 08/08 Q0998   
EGPO 200050Z AUTO 15016KT 6000 -RA OVC004/// 08/07 Q0998
EGPO 200020Z AUTO 15016KT 7000 -RA BKN006/// OVC010/// 07/06 Q0999  
EGPO 192350Z AUTO 14015KT 7000 -RA BKN008/// OVC015/// 07/06 Q0999  
EGPO 192320Z AUTO 13015KT 7000 -RA FEW006/// BKN014/// OVC023/// 07/05 Q1000
EGPO 192250Z AUTO 13015KT 9999 -RA SCT006/// SCT009/// OVC014/// 07/05 Q1000
EGPO 192220Z AUTO 13015KT 9999 -RA BKN014/// OVC020/// 07/05 Q1001  
EGPO 192150Z AUTO 13015KT 9999 -RA BKN019/// OVC024/// 07/05 Q1001  
EGPO 192120Z AUTO 13016KT 9999 -RA OVC028/// 07/05 Q1002
EGPO 192050Z AUTO 13014KT 9999 -RA BKN030/// OVC048/// 07/05 Q1002  
EGPO 192020Z AUTO 14017KT 9999 -RA BKN024/// OVC030/// 07/05 Q1003  
EGPO 191950Z AUTO 15018KT 9999 -RA SCT016/// BKN022/// OVC032/// 07/05 Q1003
EGPO 191920Z 15019KT 9999 -RA FEW011 SCT015 BKN022 07/05 Q1004